createdAt,value
2022-12-27T00:00:16.217Z,19.20
2022-12-27T00:03:05.235Z,29.90
2022-12-27T00:05:33.977Z,24.30
2022-12-27T00:08:03.373Z,21.10
2022-12-27T00:10:32.261Z,19.10
2022-12-27T00:13:02.328Z,18.10
2022-12-27T00:15:33.181Z,16.70
2022-12-27T00:18:02.338Z,20.60
2022-12-27T00:20:31.102Z,18.20
2022-12-27T00:23:01.642Z,15.70
2022-12-27T00:25:30.618Z,17.30
2022-12-27T00:27:59.311Z,16.30
2022-12-27T00:30:28.304Z,17.30
2022-12-27T00:32:58.327Z,17.40
2022-12-27T00:35:27.636Z,16.40
2022-12-27T00:37:57.559Z,17.30
2022-12-27T00:40:26.849Z,18.50
2022-12-27T00:42:56.045Z,19.80
2022-12-27T00:45:25.084Z,20.40
2022-12-27T00:47:54.960Z,24.60
2022-12-27T00:50:24.035Z,24.90
2022-12-27T00:52:52.858Z,19.00
2022-12-27T00:55:21.716Z,17.70
2022-12-27T00:57:50.905Z,18.40
2022-12-27T01:00:19.710Z,22.20
2022-12-27T01:02:50.247Z,22.50
2022-12-27T01:07:48.740Z,17.40
2022-12-27T01:10:17.622Z,15.10
2022-12-27T01:12:47.348Z,18.20
2022-12-27T01:15:16.441Z,14.90
2022-12-27T01:17:45.418Z,15.60
2022-12-27T01:20:14.422Z,16.90
2022-12-27T01:22:43.821Z,13.90
2022-12-27T01:25:13.145Z,18.50
2022-12-27T01:27:42.251Z,15.60
2022-12-27T01:30:12.757Z,21.30
2022-12-27T01:32:42.390Z,21.80
2022-12-27T01:35:11.968Z,24.80
2022-12-27T01:37:41.147Z,25.90
2022-12-27T01:40:11.541Z,23.20
2022-12-27T01:42:53.437Z,19.80
2022-12-27T01:45:24.013Z,18.40
2022-12-27T01:47:56.602Z,16.20
2022-12-27T01:50:36.845Z,17.50
2022-12-27T01:53:18.326Z,20.50
2022-12-27T01:56:12.400Z,21.30
2022-12-27T01:58:50.000Z,35.40
2022-12-27T02:01:33.809Z,35.20
2022-12-27T02:04:16.569Z,31.40
2022-12-27T02:06:48.424Z,22.30
2022-12-27T02:10:00.408Z,16.80
2022-12-27T02:12:31.613Z,19.40
2022-12-27T02:15:03.633Z,22.50
2022-12-27T02:17:35.777Z,20.40
2022-12-27T02:20:22.140Z,18.70
2022-12-27T02:23:37.876Z,19.30
2022-12-27T02:26:39.737Z,15.20
2022-12-27T02:29:17.838Z,13.50
2022-12-27T02:32:04.675Z,14.90
2022-12-27T02:34:52.897Z,15.10
2022-12-27T02:37:25.877Z,19.00
2022-12-27T02:40:18.438Z,15.50
2022-12-27T02:43:08.941Z,14.40
2022-12-27T02:48:49.115Z,11.10
2022-12-27T02:52:15.168Z,12.10
2022-12-27T02:55:18.219Z,16.90
2022-12-27T02:58:01.045Z,18.30
2022-12-27T03:00:58.630Z,19.40
2022-12-27T03:03:45.010Z,18.60
2022-12-27T03:06:41.841Z,14.30
2022-12-27T03:09:57.747Z,13.40
2022-12-27T03:13:04.631Z,24.40
2022-12-27T03:15:52.596Z,22.50
2022-12-27T03:18:43.504Z,19.60
2022-12-27T03:21:53.452Z,18.80
2022-12-27T03:24:56.972Z,14.10
2022-12-27T03:27:38.754Z,12.40
2022-12-27T03:30:29.546Z,15.30
2022-12-27T03:33:16.161Z,11.00
2022-12-27T03:36:29.494Z,13.30
2022-12-27T03:39:13.756Z,12.00
2022-12-27T03:42:12.859Z,12.90
2022-12-27T03:44:43.155Z,14.50
2022-12-27T03:47:25.430Z,10.20
2022-12-27T03:50:07.493Z,11.50
2022-12-27T03:52:44.927Z,12.60
2022-12-27T03:55:16.806Z,11.30
2022-12-27T03:57:46.155Z,12.00
2022-12-27T04:00:16.543Z,11.30
2022-12-27T04:02:46.651Z,10.60
2022-12-27T04:05:16.894Z,11.40
2022-12-27T04:08:05.921Z,16.50
2022-12-27T04:10:54.261Z,14.10
2022-12-27T04:13:42.917Z,14.90
2022-12-27T04:16:31.667Z,13.20
2022-12-27T04:19:19.452Z,11.40
2022-12-27T04:22:07.356Z,11.40
2022-12-27T04:24:55.382Z,14.80
2022-12-27T04:27:43.639Z,28.70
2022-12-27T04:30:31.670Z,29.10
2022-12-27T04:33:19.484Z,22.00
2022-12-27T04:35:49.433Z,13.90
2022-12-27T04:41:06.761Z,13.10
2022-12-27T04:43:54.578Z,23.50
2022-12-27T04:46:44.612Z,19.70
2022-12-27T04:49:40.498Z,29.40
2022-12-27T04:52:34.790Z,17.70
2022-12-27T04:55:19.162Z,23.50
2022-12-27T04:57:50.196Z,23.60
2022-12-27T05:00:40.504Z,24.40
2022-12-27T05:03:16.170Z,26.80
2022-12-27T05:05:46.841Z,26.00
2022-12-27T05:08:35.809Z,20.20
2022-12-27T05:11:25.479Z,21.30
2022-12-27T05:14:00.850Z,20.80
2022-12-27T05:16:38.536Z,18.20
2022-12-27T05:19:10.040Z,18.50
2022-12-27T05:22:03.558Z,16.00
2022-12-27T05:24:51.488Z,17.30
2022-12-27T05:27:21.284Z,17.20
2022-12-27T05:29:50.180Z,13.20
2022-12-27T05:32:19.579Z,14.40
2022-12-27T05:34:48.983Z,13.70
2022-12-27T05:37:17.869Z,15.10
2022-12-27T05:39:46.666Z,16.40
2022-12-27T05:42:15.445Z,12.60
2022-12-27T05:44:44.744Z,16.70
2022-12-27T05:47:14.041Z,15.30
2022-12-27T05:49:42.754Z,19.50
2022-12-27T05:52:11.930Z,20.00
2022-12-27T05:54:41.835Z,16.90
2022-12-27T05:57:11.344Z,13.80
2022-12-27T05:59:40.331Z,13.60
2022-12-27T06:02:09.173Z,35.60
2022-12-27T06:04:38.642Z,55.00
2022-12-27T06:07:07.518Z,41.00
2022-12-27T06:09:36.619Z,45.90
2022-12-27T06:12:06.013Z,46.20
2022-12-27T06:14:35.623Z,39.60
2022-12-27T06:17:04.523Z,33.30
2022-12-27T06:19:33.817Z,26.20
2022-12-27T06:22:02.902Z,51.10
2022-12-27T06:24:34.981Z,81.90
2022-12-27T06:27:06.631Z,44.90
2022-12-27T06:29:35.319Z,33.10
2022-12-27T06:32:04.557Z,32.60
2022-12-27T06:34:33.510Z,36.10
2022-12-27T06:37:02.499Z,38.30
2022-12-27T06:39:31.389Z,48.70
2022-12-27T06:42:00.384Z,86.50
2022-12-27T06:44:29.406Z,73.30
2022-12-27T06:46:58.057Z,60.90
2022-12-27T06:49:26.954Z,57.80
2022-12-27T06:51:59.717Z,63.50
2022-12-27T06:54:30.160Z,53.80
2022-12-27T06:56:58.741Z,37.30
2022-12-27T06:59:28.140Z,41.50
2022-12-27T07:01:56.959Z,49.60
2022-12-27T07:04:25.922Z,36.30
2022-12-27T07:06:54.611Z,37.10
2022-12-27T07:09:23.714Z,38.30
2022-12-27T07:11:54.335Z,36.20
2022-12-27T07:14:23.220Z,35.50
2022-12-27T07:16:51.851Z,37.50
2022-12-27T07:19:20.599Z,36.90
2022-12-27T07:21:49.184Z,34.80
2022-12-27T07:24:17.821Z,36.10
2022-12-27T07:26:46.755Z,31.10
2022-12-27T07:29:15.856Z,30.90
2022-12-27T07:31:44.757Z,82.10
2022-12-27T07:34:13.443Z,34.40
2022-12-27T07:36:42.727Z,39.50
2022-12-27T07:39:11.221Z,49.10
2022-12-27T07:41:40.307Z,32.90
2022-12-27T07:44:10.703Z,40.80
2022-12-27T07:46:40.344Z,38.90
2022-12-27T07:49:15.621Z,37.90
2022-12-27T07:51:46.617Z,42.50
2022-12-27T07:54:18.785Z,43.50
2022-12-27T07:56:47.467Z,38.00
2022-12-27T07:59:16.358Z,36.10
2022-12-27T08:02:03.614Z,35.60
2022-12-27T08:04:35.320Z,33.20
2022-12-27T08:07:12.414Z,47.70
2022-12-27T08:09:44.247Z,39.20
2022-12-27T08:12:16.247Z,36.70
2022-12-27T08:14:45.852Z,42.60
2022-12-27T08:17:22.947Z,41.30
2022-12-27T08:19:52.639Z,39.40
2022-12-27T08:22:22.566Z,34.50
2022-12-27T08:24:51.543Z,34.40
2022-12-27T08:27:22.707Z,40.30
2022-12-27T08:29:51.373Z,37.60
2022-12-27T08:32:20.278Z,39.30
2022-12-27T08:34:49.262Z,42.30
2022-12-27T08:37:17.837Z,44.30
2022-12-27T08:39:46.427Z,39.80
2022-12-27T08:42:15.413Z,35.10
2022-12-27T08:56:15.927Z,37.40
2022-12-27T08:58:44.612Z,32.90
2022-12-27T09:01:13.735Z,38.10
2022-12-27T09:03:42.808Z,33.30
2022-12-27T09:06:17.542Z,32.60
2022-12-27T09:08:48.005Z,34.90
2022-12-27T09:11:19.847Z,35.70
2022-12-27T09:13:48.808Z,35.40
2022-12-27T09:16:20.651Z,37.90
2022-12-27T09:18:52.439Z,37.40
2022-12-27T09:21:22.859Z,33.10
2022-12-27T09:23:52.051Z,34.40
2022-12-27T09:26:26.699Z,36.10
2022-12-27T09:28:56.786Z,38.00
2022-12-27T09:31:26.061Z,34.80
2022-12-27T09:33:55.197Z,30.50
2022-12-27T09:36:29.684Z,33.60
2022-12-27T09:38:59.527Z,32.20
2022-12-27T09:42:46.606Z,31.20
2022-12-27T09:45:13.289Z,32.90
2022-12-27T09:47:57.272Z,30.60
2022-12-27T09:50:36.160Z,32.10
2022-12-27T09:53:29.629Z,33.60
2022-12-27T09:55:58.307Z,33.90
2022-12-27T09:58:48.600Z,35.50
2022-12-27T10:01:31.671Z,35.00
2022-12-27T10:04:01.550Z,31.10
2022-12-27T10:06:48.663Z,50.10
2022-12-27T10:09:40.073Z,49.30
2022-12-27T10:12:18.382Z,47.50
2022-12-27T10:15:02.835Z,38.10
2022-12-27T10:17:57.531Z,30.70
2022-12-27T10:20:26.118Z,28.70
2022-12-27T10:23:05.971Z,30.80
2022-12-27T10:25:36.291Z,26.10
2022-12-27T10:28:41.953Z,28.40
2022-12-27T10:31:17.757Z,33.20
2022-12-27T10:33:48.218Z,36.00
2022-12-27T10:36:21.147Z,39.50
2022-12-27T10:38:49.902Z,44.80
2022-12-27T10:41:50.409Z,40.90
2022-12-27T10:44:19.113Z,39.30
2022-12-27T10:46:56.482Z,37.40
2022-12-27T10:49:30.967Z,30.50
2022-12-27T10:52:17.947Z,25.30
2022-12-27T10:54:57.481Z,25.30
2022-12-27T10:57:29.504Z,23.70
2022-12-27T11:00:23.015Z,22.40
2022-12-27T11:02:58.875Z,21.40
2022-12-27T11:05:31.589Z,20.60
2022-12-27T11:08:01.759Z,20.30
2022-12-27T11:10:38.226Z,17.40
2022-12-27T11:13:18.081Z,16.10
2022-12-27T11:15:58.869Z,17.50
2022-12-27T11:18:27.728Z,17.50
2022-12-27T11:20:59.624Z,17.00
2022-12-27T11:23:44.484Z,17.00
2022-12-27T11:26:24.817Z,17.20
2022-12-27T11:29:02.048Z,17.30
2022-12-27T11:31:30.650Z,20.70
2022-12-27T11:34:21.601Z,18.30
2022-12-27T11:36:53.295Z,19.00
2022-12-27T11:39:41.409Z,17.90
2022-12-27T11:42:31.888Z,15.80
2022-12-27T11:45:18.814Z,15.60
2022-12-27T11:48:07.765Z,15.00
2022-12-27T11:50:58.873Z,13.40
2022-12-27T11:53:40.979Z,14.40
2022-12-27T11:56:09.759Z,14.00
2022-12-27T11:58:58.518Z,13.10
2022-12-27T12:02:01.075Z,12.00
2022-12-27T12:04:44.733Z,12.80
2022-12-27T12:07:37.889Z,11.50
2022-12-27T12:10:47.023Z,12.40
2022-12-27T12:13:18.476Z,13.40
2022-12-27T12:15:53.033Z,13.10
2022-12-27T12:18:36.747Z,11.80
2022-12-27T12:21:29.898Z,11.80
2022-12-27T12:24:10.560Z,10.80
2022-12-27T12:27:08.537Z,16.90
2022-12-27T12:29:45.925Z,15.50
2022-12-27T12:32:42.461Z,16.30
2022-12-27T12:35:24.459Z,15.00
2022-12-27T12:38:27.352Z,15.20
2022-12-27T12:41:33.305Z,15.70
2022-12-27T12:44:29.847Z,14.60
2022-12-27T12:47:09.185Z,15.50
2022-12-27T12:49:56.604Z,15.00
2022-12-27T12:52:43.719Z,14.20
2022-12-27T12:55:30.947Z,14.90
2022-12-27T13:00:56.317Z,15.40
2022-12-27T13:03:46.766Z,13.00
2022-12-27T13:06:46.475Z,15.50
2022-12-27T13:12:33.512Z,12.00
2022-12-27T13:15:02.507Z,13.40
2022-12-27T13:17:43.377Z,13.20
2022-12-27T13:20:33.365Z,8.60
2022-12-27T13:23:11.370Z,8.90
2022-12-27T13:26:07.507Z,10.30
2022-12-27T13:28:55.235Z,10.00
2022-12-27T13:31:51.252Z,12.60
2022-12-27T13:34:38.173Z,7.90
2022-12-27T13:37:15.975Z,7.50
2022-12-27T13:40:05.750Z,7.30
2022-12-27T13:45:39.378Z,6.20
2022-12-27T13:48:49.216Z,7.30
2022-12-27T13:51:47.808Z,6.50
2022-12-27T13:54:57.102Z,5.90
2022-12-27T13:57:25.828Z,5.40
2022-12-27T14:00:06.187Z,5.10
2022-12-27T14:02:38.383Z,4.30
2022-12-27T14:05:32.332Z,3.20
2022-12-27T14:08:22.318Z,4.30
2022-12-27T14:11:00.503Z,3.30
2022-12-27T14:13:39.350Z,3.50
2022-12-27T14:16:26.162Z,3.20
2022-12-27T14:19:17.889Z,2.80
2022-12-27T14:22:14.530Z,3.00
2022-12-27T14:24:55.809Z,3.10
2022-12-27T14:27:49.071Z,2.50
2022-12-27T14:30:56.721Z,2.90
2022-12-27T14:34:06.927Z,3.40
2022-12-27T14:36:44.429Z,3.20
2022-12-27T14:39:22.220Z,4.50
2022-12-27T14:42:36.270Z,3.00
2022-12-27T14:45:58.641Z,3.90
2022-12-27T14:48:30.180Z,3.70
2022-12-27T14:54:46.896Z,4.30
2022-12-27T15:00:15.811Z,4.30
2022-12-27T15:03:12.393Z,3.10
2022-12-27T15:05:55.646Z,4.20
2022-12-27T15:08:30.299Z,5.00
2022-12-27T15:11:08.617Z,5.00
2022-12-27T15:13:40.162Z,4.90
2022-12-27T15:16:20.967Z,3.60
2022-12-27T15:18:49.513Z,4.40
2022-12-27T15:21:41.835Z,4.30
2022-12-27T15:24:23.661Z,5.60
2022-12-27T15:27:34.620Z,4.50
2022-12-27T15:30:08.436Z,4.80
2022-12-27T15:32:54.846Z,4.00
2022-12-27T15:35:35.408Z,5.60
2022-12-27T15:38:14.730Z,3.60
2022-12-27T15:40:56.324Z,4.50
2022-12-27T15:43:37.086Z,3.80
2022-12-27T15:46:24.284Z,4.00
2022-12-27T15:49:27.807Z,4.30
2022-12-27T15:51:56.596Z,5.10
2022-12-27T15:54:31.225Z,4.90
2022-12-27T15:57:02.670Z,4.50
2022-12-27T15:59:37.915Z,4.80
2022-12-27T16:02:34.121Z,4.50
2022-12-27T16:05:31.175Z,8.80
2022-12-27T16:07:59.774Z,5.50
2022-12-27T16:10:35.593Z,4.30
2022-12-27T16:13:13.328Z,5.10
2022-12-27T16:15:52.473Z,7.40
2022-12-27T16:18:24.336Z,4.20
2022-12-27T16:21:00.792Z,4.40
2022-12-27T16:23:34.797Z,5.80
2022-12-27T16:26:07.011Z,3.60
2022-12-27T16:28:37.807Z,5.50
2022-12-27T16:31:11.901Z,5.00
2022-12-27T16:33:42.187Z,5.40
2022-12-27T16:39:15.095Z,5.80
2022-12-27T16:41:58.676Z,5.00
2022-12-27T16:44:28.168Z,6.10
2022-12-27T16:46:58.046Z,6.00
2022-12-27T16:49:29.445Z,8.10
2022-12-27T16:52:12.983Z,5.50
2022-12-27T16:55:15.960Z,7.10
2022-12-27T16:57:48.059Z,6.40
2022-12-27T17:00:35.892Z,8.80
2022-12-27T17:03:22.877Z,7.20
2022-12-27T17:06:30.628Z,7.60
2022-12-27T17:08:41.955Z,6.40
2022-12-27T17:11:30.099Z,5.80
2022-12-27T17:14:04.519Z,4.90
2022-12-27T17:16:42.459Z,9.50
2022-12-27T17:19:40.594Z,5.60
2022-12-27T17:22:15.635Z,4.90
2022-12-27T17:24:46.369Z,5.00
2022-12-27T17:27:30.823Z,5.60
2022-12-27T17:30:11.390Z,4.10
2022-12-27T17:33:10.889Z,3.30
2022-12-27T17:35:47.384Z,4.00
2022-12-27T17:39:10.125Z,3.90
2022-12-27T17:42:13.026Z,4.40
2022-12-27T17:44:56.849Z,4.80
2022-12-27T17:47:43.961Z,4.70
2022-12-27T17:50:21.243Z,5.30
2022-12-27T17:53:38.076Z,6.50
2022-12-27T17:56:39.000Z,7.00
2022-12-27T17:59:25.143Z,5.20
2022-12-27T18:01:58.242Z,8.00
2022-12-27T18:04:31.068Z,4.40
2022-12-27T18:07:05.829Z,3.50
2022-12-27T18:09:42.975Z,4.40
2022-12-27T18:12:31.736Z,3.80
2022-12-27T18:15:11.694Z,4.10
2022-12-27T18:17:46.620Z,4.20
2022-12-27T18:20:37.240Z,4.40
2022-12-27T18:23:06.419Z,10.60
2022-12-27T18:25:40.443Z,3.90
2022-12-27T18:28:19.764Z,4.00
2022-12-27T18:30:55.616Z,2.50
2022-12-27T18:34:20.023Z,2.50
2022-12-27T18:36:57.703Z,3.80
2022-12-27T18:39:33.997Z,5.10
2022-12-27T18:42:12.702Z,3.30
2022-12-27T18:44:50.996Z,3.60
2022-12-27T18:47:23.664Z,4.30
2022-12-27T18:49:58.717Z,3.90
2022-12-27T18:52:33.585Z,4.80
2022-12-27T18:55:18.722Z,2.70
2022-12-27T18:57:48.454Z,3.40
2022-12-27T19:00:27.981Z,2.90
2022-12-27T19:03:14.923Z,4.20
2022-12-27T19:06:08.259Z,3.10
2022-12-27T19:08:53.015Z,4.10
2022-12-27T19:11:25.793Z,3.80
2022-12-27T19:13:59.183Z,6.90
2022-12-27T19:16:30.471Z,3.20
2022-12-27T19:19:15.288Z,3.90
2022-12-27T19:21:44.602Z,4.60
2022-12-27T19:24:39.717Z,5.20
2022-12-27T19:27:24.397Z,4.60
2022-12-27T19:29:53.448Z,5.20
2022-12-27T19:32:34.814Z,4.90
2022-12-27T19:35:05.062Z,4.10
2022-12-27T19:37:34.149Z,4.90
2022-12-27T19:40:03.051Z,4.00
2022-12-27T19:42:35.125Z,3.30
2022-12-27T19:45:03.892Z,4.70
2022-12-27T19:47:35.054Z,3.50
2022-12-27T19:50:04.643Z,4.00
2022-12-27T19:52:33.739Z,3.80
2022-12-27T19:55:07.310Z,4.20
2022-12-27T19:57:36.133Z,3.30
2022-12-27T20:00:12.316Z,2.30
2022-12-27T20:02:41.712Z,3.70
2022-12-27T20:05:13.400Z,6.00
2022-12-27T20:07:43.059Z,2.60
2022-12-27T20:10:15.324Z,6.10
2022-12-27T20:12:44.105Z,4.60
2022-12-27T20:15:12.694Z,4.10
2022-12-27T20:17:44.940Z,3.60
2022-12-27T20:20:14.184Z,5.70
2022-12-27T20:22:43.205Z,3.60
2022-12-27T20:25:11.648Z,3.70
2022-12-27T20:27:41.042Z,3.90
2022-12-27T20:30:10.873Z,7.30
2022-12-27T20:32:40.053Z,3.40
2022-12-27T20:35:09.146Z,3.80
2022-12-27T20:37:37.751Z,4.60
2022-12-27T20:40:07.945Z,5.60
2022-12-27T20:42:36.531Z,4.00
2022-12-27T20:45:05.722Z,4.30
2022-12-27T20:47:34.209Z,6.00
2022-12-27T20:50:02.890Z,4.70
2022-12-27T20:52:31.542Z,4.50
2022-12-27T20:55:00.486Z,7.80
2022-12-27T20:57:29.153Z,4.70
2022-12-27T20:59:58.051Z,6.20
2022-12-27T21:02:27.334Z,4.20
2022-12-27T21:04:56.135Z,4.50
2022-12-27T21:07:24.823Z,5.90
2022-12-27T21:09:53.911Z,4.60
2022-12-27T21:12:22.900Z,4.90
2022-12-27T21:14:51.692Z,4.20
2022-12-27T21:17:20.175Z,5.30
2022-12-27T21:19:48.757Z,4.40
2022-12-27T21:22:17.341Z,5.80
2022-12-27T21:24:46.127Z,4.70
2022-12-27T21:27:15.017Z,5.80
2022-12-27T21:29:43.708Z,5.00
2022-12-27T21:32:12.495Z,7.00
2022-12-27T21:34:41.590Z,6.10
2022-12-27T21:37:13.222Z,6.00
2022-12-27T21:39:42.349Z,5.20
2022-12-27T21:42:12.659Z,7.40
2022-12-27T21:47:10.040Z,7.80
2022-12-27T21:49:40.766Z,5.30
2022-12-27T21:52:09.357Z,6.70
2022-12-27T21:54:38.137Z,5.60
2022-12-27T21:57:06.823Z,5.70
2022-12-27T21:59:35.523Z,5.90
2022-12-27T22:02:04.738Z,5.50
2022-12-27T22:04:33.399Z,5.70
2022-12-27T22:07:02.190Z,5.80
2022-12-27T22:09:31.055Z,6.10
2022-12-27T22:11:59.764Z,4.90
2022-12-27T22:14:30.595Z,6.00
2022-12-27T22:17:03.883Z,5.30
2022-12-27T22:19:32.475Z,7.10
2022-12-27T22:22:01.166Z,5.10
2022-12-27T22:24:29.951Z,5.10
2022-12-27T22:26:58.625Z,5.00
2022-12-27T22:29:33.221Z,5.70
2022-12-27T22:32:04.194Z,4.90
2022-12-27T22:34:32.896Z,5.10
2022-12-27T22:37:01.464Z,7.80
2022-12-27T22:39:30.042Z,5.00
2022-12-27T22:41:58.912Z,3.60
2022-12-27T22:44:28.236Z,7.30
2022-12-27T22:49:48.134Z,3.90
2022-12-27T22:52:16.719Z,5.40
2022-12-27T22:55:05.400Z,4.80
2022-12-27T22:57:34.689Z,4.50
2022-12-27T23:00:05.309Z,5.40
2022-12-27T23:02:34.211Z,4.00
2022-12-27T23:05:04.107Z,6.10
2022-12-27T23:08:04.087Z,5.70
2022-12-27T23:10:22.580Z,5.50
2022-12-27T23:12:51.366Z,7.50
2022-12-27T23:15:20.045Z,4.10
2022-12-27T23:17:48.934Z,5.50
2022-12-27T23:20:18.334Z,5.00
2022-12-27T23:22:47.028Z,4.30
2022-12-27T23:25:15.604Z,4.90
2022-12-27T23:27:44.306Z,5.90
2022-12-27T23:30:14.309Z,4.20
2022-12-27T23:32:43.093Z,7.30
2022-12-27T23:35:11.886Z,5.00
2022-12-27T23:37:40.674Z,6.60
2022-12-27T23:40:10.379Z,4.90
2022-12-27T23:42:39.382Z,5.60
2022-12-27T23:45:09.003Z,3.50
2022-12-27T23:47:37.979Z,4.70
2022-12-27T23:50:07.489Z,6.30
2022-12-27T23:52:36.478Z,4.80
2022-12-27T23:55:07.196Z,4.90
2022-12-27T23:57:36.713Z,4.60
